ADC007 SKCL-SKBO
Flight info
| Callsign | ADC007 |
|---|---|
| Flight time | 0h 52m |
| Altitude | 26000 |
| Route | ULQ1B ULQ W1 TOLIM TOLIM4W |
| Aircraft | B722/M-SDFGHRWY/C |
Departure
| Time | 2026-04-25 21:35 |
|---|---|
| Airport | Alfonso Bonilla Aragon International Airport (SKCL) |
Arrival
| Time | 2026-04-25 22:28 |
|---|---|
| Airport | El Dorado International Airport (SKBO) |
| Time | Latitude | Longitude | Altitude | Speed | Heading |
|---|---|---|---|---|---|
| 2026-04-25 21:25 | 3.53987 | -76.38698 | 3173 ft | 0 kts | 279° |
| 2026-04-25 21:27 | 3.53986 | -76.38691 | 3173 ft | 2 kts | 279° |
| 2026-04-25 21:27 | 3.53983 | -76.38673 | 3173 ft | 3 kts | 279° |
| 2026-04-25 21:27 | 3.53981 | -76.38662 | 3173 ft | 0 kts | 279° |
| 2026-04-25 21:27 | 3.53981 | -76.38663 | 3173 ft | 0 kts | 279° |
| 2026-04-25 21:28 | 3.53982 | -76.38669 | 3173 ft | 3 kts | 279° |
| 2026-04-25 21:28 | 3.54001 | -76.38684 | 3173 ft | 4 kts | 356° |
| 2026-04-25 21:28 | 3.54019 | -76.38661 | 3173 ft | 5 kts | 92° |
| 2026-04-25 21:28 | 3.54005 | -76.38629 | 3173 ft | 6 kts | 159° |
| 2026-04-25 21:29 | 3.53958 | -76.38628 | 3173 ft | 8 kts | 184° |
| 2026-04-25 21:29 | 3.53900 | -76.38632 | 3173 ft | 9 kts | 184° |
| 2026-04-25 21:29 | 3.53837 | -76.38633 | 3173 ft | 9 kts | 159° |
| 2026-04-25 21:29 | 3.53786 | -76.38596 | 3173 ft | 9 kts | 141° |
| 2026-04-25 21:30 | 3.53735 | -76.38558 | 3173 ft | 9 kts | 143° |
| 2026-04-25 21:30 | 3.53681 | -76.38520 | 3173 ft | 9 kts | 149° |
| 2026-04-25 21:30 | 3.53621 | -76.38493 | 3173 ft | 10 kts | 164° |
| 2026-04-25 21:30 | 3.53577 | -76.38482 | 3173 ft | 10 kts | 173° |
| 2026-04-25 21:31 | 3.53486 | -76.38488 | 3173 ft | 10 kts | 188° |
| 2026-04-25 21:31 | 3.53415 | -76.38500 | 3173 ft | 10 kts | 190° |
| 2026-04-25 21:31 | 3.53342 | -76.38513 | 3173 ft | 11 kts | 190° |
| 2026-04-25 21:31 | 3.53270 | -76.38526 | 3173 ft | 11 kts | 190° |
| 2026-04-25 21:32 | 3.53187 | -76.38541 | 3173 ft | 13 kts | 191° |
| 2026-04-25 21:32 | 3.53092 | -76.38559 | 3173 ft | 14 kts | 191° |
| 2026-04-25 21:32 | 3.52992 | -76.38565 | 3173 ft | 14 kts | 154° |
| 2026-04-25 21:32 | 3.52964 | -76.38496 | 3173 ft | 9 kts | 62° |
| 2026-04-25 21:33 | 3.52986 | -76.38464 | 3173 ft | 5 kts | 52° |
| 2026-04-25 21:33 | 3.53010 | -76.38433 | 3173 ft | 6 kts | 51° |
| 2026-04-25 21:33 | 3.53042 | -76.38409 | 3173 ft | 5 kts | 27° |
| 2026-04-25 21:33 | 3.53057 | -76.38404 | 3173 ft | 0 kts | 12° |
| 2026-04-25 21:34 | 3.53155 | -76.38386 | 3173 ft | 41 kts | 9° |
| 2026-04-25 21:35 | 3.53632 | -76.38309 | 3173 ft | 98 kts | 9° |
| 2026-04-25 21:35 | 3.54479 | -76.38162 | 3173 ft | 147 kts | 10° |
| 2026-04-25 21:35 | 3.55620 | -76.37954 | 3289 ft | 178 kts | 9° |
| 2026-04-25 21:35 | 3.56801 | -76.37727 | 4014 ft | 173 kts | 10° |
| 2026-04-25 21:36 | 3.58037 | -76.37458 | 4480 ft | 186 kts | 11° |
| 2026-04-25 21:36 | 3.59310 | -76.37185 | 5124 ft | 189 kts | 12° |
| 2026-04-25 21:36 | 3.60630 | -76.36898 | 5622 ft | 200 kts | 12° |
| 2026-04-25 21:36 | 3.62033 | -76.36595 | 6058 ft | 214 kts | 12° |
| 2026-04-25 21:37 | 3.63589 | -76.36255 | 6323 ft | 241 kts | 13° |
| 2026-04-25 21:37 | 3.64706 | -76.35991 | 6559 ft | 255 kts | 14° |
| 2026-04-25 21:37 | 3.67107 | -76.35396 | 7032 ft | 285 kts | 14° |
| 2026-04-25 21:37 | 3.69097 | -76.34833 | 7364 ft | 309 kts | 17° |
| 2026-04-25 21:38 | 3.71245 | -76.34166 | 7646 ft | 338 kts | 18° |
| 2026-04-25 21:38 | 3.73584 | -76.33415 | 7970 ft | 364 kts | 18° |
| 2026-04-25 21:38 | 3.76061 | -76.32608 | 8368 ft | 382 kts | 18° |
| 2026-04-25 21:38 | 3.78607 | -76.31773 | 8798 ft | 389 kts | 18° |
| 2026-04-25 21:39 | 3.81203 | -76.30924 | 9249 ft | 396 kts | 18° |
| 2026-04-25 21:39 | 3.82464 | -76.30536 | 9469 ft | 399 kts | 17° |
| 2026-04-25 21:39 | 3.84846 | -76.29865 | 9886 ft | 403 kts | 15° |
| 2026-04-25 21:40 | 3.87578 | -76.29148 | 10370 ft | 408 kts | 14° |
| 2026-04-25 21:40 | 3.90343 | -76.28452 | 10856 ft | 412 kts | 14° |
| 2026-04-25 21:40 | 3.93130 | -76.27736 | 11355 ft | 415 kts | 14° |
| 2026-04-25 21:40 | 3.95920 | -76.26992 | 11842 ft | 417 kts | 15° |
| 2026-04-25 21:41 | 3.98698 | -76.26239 | 12330 ft | 419 kts | 15° |
| 2026-04-25 21:41 | 4.01510 | -76.25469 | 12823 ft | 420 kts | 15° |
| 2026-04-25 21:41 | 4.04342 | -76.24689 | 13318 ft | 421 kts | 15° |
| 2026-04-25 21:41 | 4.07171 | -76.23908 | 13809 ft | 422 kts | 15° |
| 2026-04-25 21:42 | 4.09958 | -76.22981 | 14246 ft | 424 kts | 24° |
| 2026-04-25 21:42 | 4.12440 | -76.21388 | 14633 ft | 427 kts | 40° |
| 2026-04-25 21:42 | 4.14470 | -76.19217 | 15068 ft | 428 kts | 51° |
| 2026-04-25 21:42 | 4.16123 | -76.16744 | 15519 ft | 428 kts | 59° |
| 2026-04-25 21:43 | 4.17440 | -76.14062 | 15978 ft | 428 kts | 66° |
| 2026-04-25 21:43 | 4.18537 | -76.11283 | 16444 ft | 428 kts | 69° |
| 2026-04-25 21:43 | 4.19514 | -76.08474 | 16902 ft | 427 kts | 71° |
| 2026-04-25 21:43 | 4.20430 | -76.05645 | 17353 ft | 427 kts | 72° |
| 2026-04-25 21:44 | 4.21313 | -76.02811 | 17796 ft | 426 kts | 72° |
| 2026-04-25 21:44 | 4.22184 | -75.99964 | 18233 ft | 426 kts | 72° |
| 2026-04-25 21:44 | 4.23891 | -75.94308 | 19069 ft | 425 kts | 73° |
| 2026-04-25 21:45 | 4.24743 | -75.91481 | 19475 ft | 425 kts | 73° |
| 2026-04-25 21:45 | 4.25028 | -75.90522 | 19610 ft | 424 kts | 73° |
| 2026-04-25 21:45 | 4.26305 | -75.85764 | 20251 ft | 425 kts | 76° |
| 2026-04-25 21:45 | 4.27020 | -75.82892 | 20628 ft | 425 kts | 76° |
| 2026-04-25 21:46 | 4.27720 | -75.80014 | 21001 ft | 425 kts | 76° |
| 2026-04-25 21:46 | 4.28411 | -75.77135 | 21366 ft | 425 kts | 77° |
| 2026-04-25 21:46 | 4.29102 | -75.74243 | 21727 ft | 425 kts | 77° |
| 2026-04-25 21:46 | 4.29778 | -75.71390 | 22078 ft | 425 kts | 76° |
| 2026-04-25 21:47 | 4.30454 | -75.68502 | 22428 ft | 425 kts | 77° |
| 2026-04-25 21:47 | 4.31124 | -75.65616 | 22770 ft | 425 kts | 77° |
| 2026-04-25 21:47 | 4.31793 | -75.62734 | 23103 ft | 425 kts | 77° |
| 2026-04-25 21:47 | 4.32465 | -75.59838 | 23431 ft | 425 kts | 77° |
| 2026-04-25 21:48 | 4.33139 | -75.56938 | 23752 ft | 426 kts | 77° |
| 2026-04-25 21:48 | 4.33802 | -75.54090 | 24061 ft | 426 kts | 77° |
| 2026-04-25 21:48 | 4.34479 | -75.51189 | 24371 ft | 426 kts | 77° |
| 2026-04-25 21:48 | 4.35154 | -75.48300 | 24674 ft | 426 kts | 77° |
| 2026-04-25 21:49 | 4.35831 | -75.45406 | 24975 ft | 426 kts | 77° |
| 2026-04-25 21:49 | 4.36509 | -75.42514 | 25273 ft | 426 kts | 76° |
| 2026-04-25 21:49 | 4.37187 | -75.39628 | 25563 ft | 426 kts | 76° |
| 2026-04-25 21:49 | 4.37866 | -75.36740 | 25847 ft | 425 kts | 76° |
| 2026-04-25 21:50 | 4.38548 | -75.33848 | 26122 ft | 425 kts | 76° |
| 2026-04-25 21:50 | 4.39246 | -75.31004 | 26270 ft | 428 kts | 73° |
| 2026-04-25 21:50 | 4.40347 | -75.28212 | 26279 ft | 434 kts | 64° |
| 2026-04-25 21:50 | 4.41280 | -75.26389 | 26286 ft | 437 kts | 61° |
| 2026-04-25 21:51 | 4.43358 | -75.22859 | 26134 ft | 449 kts | 57° |
| 2026-04-25 21:51 | 4.44486 | -75.21105 | 26062 ft | 453 kts | 56° |
| 2026-04-25 21:51 | 4.46250 | -75.18461 | 25983 ft | 459 kts | 55° |
| 2026-04-25 21:51 | 4.48070 | -75.15806 | 25946 ft | 463 kts | 55° |
| 2026-04-25 21:52 | 4.50149 | -75.13334 | 25943 ft | 465 kts | 43° |
| 2026-04-25 21:52 | 4.52702 | -75.11323 | 25950 ft | 467 kts | 34° |
| 2026-04-25 21:52 | 4.55486 | -75.09613 | 25955 ft | 469 kts | 29° |
| 2026-04-25 21:52 | 4.58373 | -75.08079 | 25973 ft | 471 kts | 26° |
| 2026-04-25 21:53 | 4.61288 | -75.06657 | 26001 ft | 472 kts | 25° |
| 2026-04-25 21:53 | 4.64277 | -75.05268 | 26010 ft | 474 kts | 24° |
| 2026-04-25 21:53 | 4.67315 | -75.03895 | 26002 ft | 476 kts | 24° |
| 2026-04-25 21:53 | 4.70233 | -75.02304 | 25976 ft | 479 kts | 33° |
| 2026-04-25 21:54 | 4.72855 | -75.00236 | 25967 ft | 480 kts | 41° |
| 2026-04-25 21:54 | 4.75273 | -74.97924 | 25900 ft | 483 kts | 45° |
| 2026-04-25 21:54 | 4.77577 | -74.95461 | 25892 ft | 484 kts | 46° |
| 2026-04-25 21:54 | 4.79772 | -74.92941 | 25886 ft | 486 kts | 48° |
| 2026-04-25 21:55 | 4.81950 | -74.90348 | 25636 ft | 483 kts | 49° |
| 2026-04-25 21:55 | 4.84073 | -74.87760 | 25138 ft | 477 kts | 49° |
| 2026-04-25 21:55 | 4.86157 | -74.85186 | 24610 ft | 472 kts | 50° |
| 2026-04-25 21:55 | 4.88209 | -74.82639 | 24077 ft | 463 kts | 50° |
| 2026-04-25 21:56 | 4.90213 | -74.80156 | 23530 ft | 453 kts | 50° |
| 2026-04-25 21:56 | 4.91649 | -74.78653 | 23105 ft | 447 kts | 40° |
| 2026-04-25 21:56 | 4.95129 | -74.76554 | 22211 ft | 436 kts | 20° |
| 2026-04-25 21:56 | 4.98055 | -74.75889 | 21555 ft | 427 kts | 5° |
| 2026-04-25 21:57 | 5.00991 | -74.75895 | 20940 ft | 417 kts | 354° |
| 2026-04-25 21:57 | 5.03791 | -74.76334 | 20360 ft | 408 kts | 348° |
| 2026-04-25 21:57 | 5.06558 | -74.77004 | 19775 ft | 400 kts | 344° |
| 2026-04-25 21:57 | 5.09244 | -74.77610 | 19151 ft | 394 kts | 353° |
| 2026-04-25 21:58 | 5.11933 | -74.77500 | 18462 ft | 391 kts | 10° |
| 2026-04-25 21:58 | 5.14497 | -74.76619 | 17800 ft | 388 kts | 24° |
| 2026-04-25 21:58 | 5.16824 | -74.75269 | 17191 ft | 384 kts | 34° |
| 2026-04-25 21:58 | 5.18896 | -74.73611 | 16831 ft | 372 kts | 40° |
| 2026-04-25 21:59 | 5.20726 | -74.71886 | 16993 ft | 353 kts | 44° |
| 2026-04-25 21:59 | 5.22427 | -74.70156 | 17014 ft | 345 kts | 47° |
| 2026-04-25 21:59 | 5.23953 | -74.68314 | 17017 ft | 339 kts | 52° |
| 2026-04-25 22:00 | 5.26372 | -74.64363 | 17019 ft | 328 kts | 66° |
| 2026-04-25 22:00 | 5.27085 | -74.62230 | 17033 ft | 323 kts | 75° |
| 2026-04-25 22:00 | 5.27563 | -74.60046 | 17044 ft | 318 kts | 78° |
| 2026-04-25 22:00 | 5.28030 | -74.57903 | 17052 ft | 312 kts | 76° |
| 2026-04-25 22:01 | 5.28563 | -74.55803 | 17054 ft | 308 kts | 75° |
| 2026-04-25 22:01 | 5.29119 | -74.53743 | 17054 ft | 303 kts | 74° |
| 2026-04-25 22:01 | 5.29679 | -74.51719 | 17053 ft | 298 kts | 74° |
| 2026-04-25 22:01 | 5.30054 | -74.50377 | 17051 ft | 293 kts | 73° |
| 2026-04-25 22:02 | 5.30836 | -74.47838 | 17050 ft | 282 kts | 71° |
| 2026-04-25 22:02 | 5.31445 | -74.45990 | 17049 ft | 275 kts | 71° |
| 2026-04-25 22:02 | 5.31966 | -74.44172 | 17038 ft | 268 kts | 81° |
| 2026-04-25 22:02 | 5.31950 | -74.42336 | 17053 ft | 260 kts | 95° |
| 2026-04-25 22:03 | 5.31662 | -74.40575 | 17055 ft | 253 kts | 100° |
| 2026-04-25 22:03 | 5.31293 | -74.38874 | 17053 ft | 246 kts | 102° |
| 2026-04-25 22:03 | 5.30905 | -74.37223 | 17044 ft | 240 kts | 102° |
| 2026-04-25 22:03 | 5.30522 | -74.35631 | 17009 ft | 234 kts | 102° |
| 2026-04-25 22:04 | 5.30142 | -74.34064 | 16996 ft | 228 kts | 103° |
| 2026-04-25 22:04 | 5.29771 | -74.32541 | 16993 ft | 221 kts | 103° |
| 2026-04-25 22:04 | 5.29229 | -74.31131 | 16969 ft | 214 kts | 122° |
| 2026-04-25 22:04 | 5.28139 | -74.30203 | 16956 ft | 203 kts | 147° |
| 2026-04-25 22:05 | 5.26797 | -74.29916 | 16943 ft | 199 kts | 166° |
| 2026-04-25 22:05 | 5.25450 | -74.30170 | 17056 ft | 197 kts | 183° |
| 2026-04-25 22:05 | 5.24085 | -74.30624 | 17167 ft | 220 kts | 196° |
| 2026-04-25 22:05 | 5.22494 | -74.31038 | 17148 ft | 250 kts | 194° |
| 2026-04-25 22:06 | 5.20707 | -74.31435 | 17119 ft | 276 kts | 193° |
| 2026-04-25 22:06 | 5.18758 | -74.31910 | 17078 ft | 297 kts | 195° |
| 2026-04-25 22:06 | 5.16699 | -74.32466 | 16974 ft | 314 kts | 196° |
| 2026-04-25 22:06 | 5.14595 | -74.33060 | 16863 ft | 321 kts | 197° |
| 2026-04-25 22:07 | 5.12464 | -74.33766 | 16683 ft | 324 kts | 200° |
| 2026-04-25 22:07 | 5.11026 | -74.34300 | 16527 ft | 326 kts | 201° |
| 2026-04-25 22:07 | 5.08218 | -74.35408 | 16202 ft | 329 kts | 202° |
| 2026-04-25 22:07 | 5.06103 | -74.36269 | 15963 ft | 326 kts | 202° |
| 2026-04-25 22:08 | 5.04014 | -74.37131 | 15711 ft | 321 kts | 202° |
| 2026-04-25 22:08 | 5.01977 | -74.37977 | 15447 ft | 313 kts | 202° |
| 2026-04-25 22:08 | 4.99988 | -74.38808 | 15162 ft | 306 kts | 202° |
| 2026-04-25 22:08 | 4.98034 | -74.39616 | 14858 ft | 300 kts | 201° |
| 2026-04-25 22:09 | 4.96112 | -74.40316 | 14857 ft | 286 kts | 198° |
| 2026-04-25 22:09 | 4.94263 | -74.40831 | 14877 ft | 274 kts | 193° |
| 2026-04-25 22:09 | 4.92408 | -74.41109 | 14861 ft | 265 kts | 180° |
| 2026-04-25 22:09 | 4.90661 | -74.40709 | 14872 ft | 254 kts | 155° |
| 2026-04-25 22:10 | 4.89310 | -74.39595 | 14892 ft | 253 kts | 128° |
| 2026-04-25 22:10 | 4.88593 | -74.37994 | 14900 ft | 256 kts | 102° |
| 2026-04-25 22:10 | 4.88657 | -74.36209 | 14940 ft | 258 kts | 76° |
| 2026-04-25 22:10 | 4.89424 | -74.34592 | 15033 ft | 257 kts | 58° |
| 2026-04-25 22:11 | 4.90455 | -74.33160 | 15034 ft | 256 kts | 52° |
| 2026-04-25 22:11 | 4.91405 | -74.31659 | 14917 ft | 256 kts | 67° |
| 2026-04-25 22:11 | 4.91643 | -74.29923 | 14903 ft | 250 kts | 93° |
| 2026-04-25 22:11 | 4.91355 | -74.28233 | 14911 ft | 243 kts | 103° |
| 2026-04-25 22:12 | 4.91002 | -74.26602 | 14893 ft | 234 kts | 103° |
| 2026-04-25 22:12 | 4.90662 | -74.25027 | 14888 ft | 228 kts | 103° |
| 2026-04-25 22:12 | 4.90336 | -74.23433 | 14905 ft | 245 kts | 101° |
| 2026-04-25 22:12 | 4.90120 | -74.22264 | 14910 ft | 259 kts | 101° |
| 2026-04-25 22:13 | 4.89767 | -74.19779 | 14910 ft | 285 kts | 97° |
| 2026-04-25 22:13 | 4.89657 | -74.17728 | 14907 ft | 302 kts | 90° |
| 2026-04-25 22:13 | 4.89717 | -74.15567 | 14904 ft | 317 kts | 87° |
| 2026-04-25 22:13 | 4.89841 | -74.13342 | 14898 ft | 317 kts | 86° |
| 2026-04-25 22:14 | 4.89934 | -74.11184 | 14891 ft | 309 kts | 88° |
| 2026-04-25 22:14 | 4.89998 | -74.09041 | 14889 ft | 299 kts | 88° |
| 2026-04-25 22:14 | 4.90006 | -74.06992 | 14887 ft | 289 kts | 90° |
| 2026-04-25 22:14 | 4.89951 | -74.05029 | 14885 ft | 281 kts | 92° |
| 2026-04-25 22:15 | 4.89832 | -74.03100 | 14884 ft | 274 kts | 94° |
| 2026-04-25 22:15 | 4.89692 | -74.01210 | 14883 ft | 267 kts | 94° |
| 2026-04-25 22:15 | 4.89548 | -73.99376 | 14883 ft | 261 kts | 94° |
| 2026-04-25 22:16 | 4.89265 | -73.95803 | 14734 ft | 255 kts | 94° |
| 2026-04-25 22:16 | 4.89125 | -73.94041 | 14550 ft | 251 kts | 94° |
| 2026-04-25 22:16 | 4.88988 | -73.92306 | 14357 ft | 247 kts | 94° |
| 2026-04-25 22:16 | 4.88853 | -73.90597 | 14151 ft | 244 kts | 94° |
| 2026-04-25 22:17 | 4.88720 | -73.88908 | 13948 ft | 241 kts | 94° |
| 2026-04-25 22:17 | 4.88589 | -73.87233 | 13974 ft | 241 kts | 94° |
| 2026-04-25 22:17 | 4.88483 | -73.85538 | 14000 ft | 246 kts | 92° |
| 2026-04-25 22:17 | 4.88440 | -73.83827 | 14005 ft | 251 kts | 91° |
| 2026-04-25 22:18 | 4.88416 | -73.82059 | 13998 ft | 254 kts | 90° |
| 2026-04-25 22:18 | 4.88067 | -73.80324 | 13965 ft | 256 kts | 112° |
| 2026-04-25 22:18 | 4.86995 | -73.78917 | 13978 ft | 254 kts | 139° |
| 2026-04-25 22:18 | 4.85436 | -73.78148 | 13980 ft | 249 kts | 165° |
| 2026-04-25 22:19 | 4.83745 | -73.78176 | 13980 ft | 242 kts | 193° |
| 2026-04-25 22:19 | 4.82320 | -73.78956 | 13982 ft | 235 kts | 221° |
| 2026-04-25 22:19 | 4.81419 | -73.80277 | 14013 ft | 227 kts | 244° |
| 2026-04-25 22:19 | 4.80942 | -73.81764 | 13985 ft | 222 kts | 257° |
| 2026-04-25 22:20 | 4.80784 | -73.83298 | 13809 ft | 223 kts | 269° |
| 2026-04-25 22:20 | 4.80897 | -73.84867 | 13609 ft | 226 kts | 276° |
| 2026-04-25 22:20 | 4.81009 | -73.86450 | 13424 ft | 229 kts | 270° |
| 2026-04-25 22:20 | 4.80937 | -73.88053 | 13244 ft | 231 kts | 266° |
| 2026-04-25 22:21 | 4.80800 | -73.89614 | 13285 ft | 217 kts | 265° |
| 2026-04-25 22:21 | 4.80612 | -73.91062 | 13260 ft | 208 kts | 261° |
| 2026-04-25 22:21 | 4.80246 | -73.92458 | 13057 ft | 208 kts | 250° |
| 2026-04-25 22:21 | 4.79669 | -73.93760 | 13026 ft | 200 kts | 245° |
| 2026-04-25 22:22 | 4.79077 | -73.94994 | 13059 ft | 192 kts | 244° |
| 2026-04-25 22:22 | 4.78430 | -73.96153 | 13062 ft | 189 kts | 236° |
| 2026-04-25 22:22 | 4.77571 | -73.97105 | 13119 ft | 179 kts | 226° |
| 2026-04-25 22:22 | 4.76733 | -73.97991 | 13003 ft | 179 kts | 227° |
| 2026-04-25 22:23 | 4.75847 | -73.98937 | 12675 ft | 192 kts | 227° |
| 2026-04-25 22:23 | 4.74918 | -73.99932 | 12414 ft | 198 kts | 227° |
| 2026-04-25 22:23 | 4.73976 | -74.00942 | 12213 ft | 193 kts | 227° |
| 2026-04-25 22:23 | 4.73091 | -74.01907 | 11999 ft | 185 kts | 227° |
| 2026-04-25 22:24 | 4.72220 | -74.02843 | 11745 ft | 181 kts | 226° |
| 2026-04-25 22:24 | 4.71237 | -74.03618 | 11492 ft | 174 kts | 213° |
| 2026-04-25 22:24 | 4.70263 | -74.04202 | 11304 ft | 162 kts | 210° |
| 2026-04-25 22:24 | 4.69280 | -74.04760 | 10978 ft | 163 kts | 208° |
| 2026-04-25 22:25 | 4.68292 | -74.05285 | 10645 ft | 159 kts | 207° |
| 2026-04-25 22:25 | 4.67431 | -74.05985 | 10212 ft | 165 kts | 226° |
| 2026-04-25 22:25 | 4.66874 | -74.06967 | 10102 ft | 157 kts | 243° |
| 2026-04-25 22:25 | 4.66395 | -74.07956 | 9846 ft | 159 kts | 244° |
| 2026-04-25 22:26 | 4.66201 | -74.09026 | 9412 ft | 162 kts | 269° |
| 2026-04-25 22:26 | 4.66685 | -74.10029 | 9138 ft | 154 kts | 304° |
| 2026-04-25 22:26 | 4.67494 | -74.10684 | 8931 ft | 146 kts | 329° |
| 2026-04-25 22:26 | 4.68260 | -74.11309 | 8693 ft | 148 kts | 314° |
| 2026-04-25 22:27 | 4.68924 | -74.12070 | 8524 ft | 141 kts | 313° |
| 2026-04-25 22:27 | 4.69513 | -74.12814 | 8385 ft | 130 kts | 309° |
| 2026-04-25 22:27 | 4.70019 | -74.13453 | 8371 ft | 102 kts | 305° |
| 2026-04-25 22:27 | 4.70363 | -74.13928 | 8371 ft | 66 kts | 308° |
| 2026-04-25 22:28 | 4.70530 | -74.14144 | 8371 ft | 22 kts | 307° |
| 2026-04-25 22:28 | 4.70590 | -74.14224 | 8371 ft | 6 kts | 307° |
| 2026-04-25 22:28 | 4.70611 | -74.14251 | 8371 ft | 4 kts | 307° |
| 2026-04-25 22:28 | 4.70631 | -74.14280 | 8371 ft | 6 kts | 305° |
| 2026-04-25 22:29 | 4.70654 | -74.14321 | 8371 ft | 8 kts | 294° |
| 2026-04-25 22:29 | 4.70632 | -74.14358 | 8371 ft | 8 kts | 186° |
| 2026-04-25 22:29 | 4.70618 | -74.14357 | 8371 ft | 2 kts | 172° |
| 2026-04-25 22:30 | 4.70549 | -74.14345 | 8371 ft | 8 kts | 172° |
| 2026-04-25 22:30 | 4.70482 | -74.14336 | 8371 ft | 9 kts | 173° |
| 2026-04-25 22:30 | 4.70421 | -74.14341 | 8371 ft | 10 kts | 201° |
| 2026-04-25 22:30 | 4.70387 | -74.14350 | 8371 ft | 7 kts | 172° |
| 2026-04-25 22:31 | 4.70319 | -74.14303 | 8371 ft | 11 kts | 128° |
| 2026-04-25 22:31 | 4.70264 | -74.14233 | 8371 ft | 14 kts | 128° |
| 2026-04-25 22:31 | 4.70199 | -74.14148 | 8371 ft | 17 kts | 127° |
| 2026-04-25 22:31 | 4.70128 | -74.14054 | 8371 ft | 14 kts | 129° |
| 2026-04-25 22:32 | 4.70080 | -74.14046 | 8371 ft | 9 kts | 189° |
| 2026-04-25 22:32 | 4.70016 | -74.14024 | 8371 ft | 12 kts | 134° |
| 2026-04-25 22:32 | 4.69960 | -74.13952 | 8371 ft | 14 kts | 127° |
| 2026-04-25 22:32 | 4.69894 | -74.13864 | 8371 ft | 17 kts | 127° |
| 2026-04-25 22:33 | 4.69818 | -74.13763 | 8371 ft | 15 kts | 127° |
| 2026-04-25 22:33 | 4.69773 | -74.13703 | 8371 ft | 11 kts | 127° |
| 2026-04-25 22:33 | 4.69728 | -74.13680 | 8371 ft | 6 kts | 188° |
| 2026-04-25 22:33 | 4.69687 | -74.13666 | 8371 ft | 6 kts | 128° |
| 2026-04-25 22:34 | 4.69673 | -74.13647 | 8371 ft | 0 kts | 127° |